sensor_id;sensor_type;location;lat;lon;timestamp;P1;durP1;ratioP1;P2;durP2;ratioP2
9801;SDS011;4940;50.900;4.672;2023-09-30T00:01:24;54.75;;;50.22;;
9801;SDS011;4940;50.900;4.672;2023-09-30T00:03:53;53.28;;;48.72;;
9801;SDS011;4940;50.900;4.672;2023-09-30T00:06:20;53.38;;;48.80;;
9801;SDS011;4940;50.900;4.672;2023-09-30T00:08:47;50.30;;;45.65;;
9801;SDS011;4940;50.900;4.672;2023-09-30T00:11:15;54.30;;;49.50;;
9801;SDS011;4940;50.900;4.672;2023-09-30T00:13:43;52.97;;;48.38;;
9801;SDS011;4940;50.900;4.672;2023-09-30T00:16:11;56.47;;;51.45;;
9801;SDS011;4940;50.900;4.672;2023-09-30T00:18:38;55.78;;;51.15;;
9801;SDS011;4940;50.900;4.672;2023-09-30T00:21:07;56.20;;;51.20;;
9801;SDS011;4940;50.900;4.672;2023-09-30T00:23:35;54.03;;;49.03;;
9801;SDS011;4940;50.900;4.672;2023-09-30T00:26:02;58.70;;;53.10;;
9801;SDS011;4940;50.900;4.672;2023-09-30T00:28:30;53.90;;;48.78;;
9801;SDS011;4940;50.900;4.672;2023-09-30T00:30:57;55.35;;;50.50;;
9801;SDS011;4940;50.900;4.672;2023-09-30T00:33:25;57.17;;;52.30;;
9801;SDS011;4940;50.900;4.672;2023-09-30T00:35:52;55.88;;;50.70;;
9801;SDS011;4940;50.900;4.672;2023-09-30T00:38:21;58.08;;;53.13;;
9801;SDS011;4940;50.900;4.672;2023-09-30T00:40:50;57.88;;;52.75;;
9801;SDS011;4940;50.900;4.672;2023-09-30T00:43:17;57.03;;;52.08;;
9801;SDS011;4940;50.900;4.672;2023-09-30T00:45:45;61.05;;;55.75;;
9801;SDS011;4940;50.900;4.672;2023-09-30T00:48:13;60.92;;;55.53;;
9801;SDS011;4940;50.900;4.672;2023-09-30T00:50:40;59.03;;;54.15;;
9801;SDS011;4940;50.900;4.672;2023-09-30T00:53:08;57.78;;;52.70;;
9801;SDS011;4940;50.900;4.672;2023-09-30T00:55:37;61.58;;;55.97;;
9801;SDS011;4940;50.900;4.672;2023-09-30T00:58:04;59.83;;;54.63;;
9801;SDS011;4940;50.900;4.672;2023-09-30T01:00:32;65.47;;;60.00;;
9801;SDS011;4940;50.900;4.672;2023-09-30T01:03:00;64.53;;;59.22;;
9801;SDS011;4940;50.900;4.672;2023-09-30T01:05:29;59.03;;;53.80;;
9801;SDS011;4940;50.900;4.672;2023-09-30T01:07:57;57.85;;;52.53;;
9801;SDS011;4940;50.900;4.672;2023-09-30T01:10:24;63.80;;;57.95;;
9801;SDS011;4940;50.900;4.672;2023-09-30T01:12:53;64.78;;;59.38;;
9801;SDS011;4940;50.900;4.672;2023-09-30T01:15:20;65.78;;;59.90;;
9801;SDS011;4940;50.900;4.672;2023-09-30T01:17:47;66.25;;;60.65;;
9801;SDS011;4940;50.900;4.672;2023-09-30T01:20:15;66.78;;;61.15;;
9801;SDS011;4940;50.900;4.672;2023-09-30T01:22:48;73.57;;;67.30;;
9801;SDS011;4940;50.900;4.672;2023-09-30T01:25:16;67.47;;;61.88;;
9801;SDS011;4940;50.900;4.672;2023-09-30T01:27:44;68.93;;;63.38;;
9801;SDS011;4940;50.900;4.672;2023-09-30T01:30:11;64.70;;;59.35;;
9801;SDS011;4940;50.900;4.672;2023-09-30T01:32:39;65.57;;;59.88;;
9801;SDS011;4940;50.900;4.672;2023-09-30T01:35:07;66.03;;;60.28;;
9801;SDS011;4940;50.900;4.672;2023-09-30T01:37:35;61.53;;;56.33;;
9801;SDS011;4940;50.900;4.672;2023-09-30T01:40:04;64.75;;;59.35;;
9801;SDS011;4940;50.900;4.672;2023-09-30T01:42:33;63.72;;;58.08;;
9801;SDS011;4940;50.900;4.672;2023-09-30T01:45:01;63.30;;;57.80;;
9801;SDS011;4940;50.900;4.672;2023-09-30T01:47:28;57.42;;;52.33;;
9801;SDS011;4940;50.900;4.672;2023-09-30T01:49:56;60.83;;;55.22;;
9801;SDS011;4940;50.900;4.672;2023-09-30T01:52:24;63.05;;;57.83;;
9801;SDS011;4940;50.900;4.672;2023-09-30T01:54:51;65.00;;;59.03;;
9801;SDS011;4940;50.900;4.672;2023-09-30T01:57:20;71.50;;;65.75;;
9801;SDS011;4940;50.900;4.672;2023-09-30T01:59:48;66.82;;;60.90;;
9801;SDS011;4940;50.900;4.672;2023-09-30T02:02:15;65.10;;;58.83;;
9801;SDS011;4940;50.900;4.672;2023-09-30T02:04:42;68.22;;;62.05;;
9801;SDS011;4940;50.900;4.672;2023-09-30T02:07:10;66.15;;;60.40;;
9801;SDS011;4940;50.900;4.672;2023-09-30T02:09:37;69.18;;;63.22;;
9801;SDS011;4940;50.900;4.672;2023-09-30T02:12:05;66.70;;;61.20;;
9801;SDS011;4940;50.900;4.672;2023-09-30T02:14:34;65.22;;;59.83;;
9801;SDS011;4940;50.900;4.672;2023-09-30T02:17:03;64.60;;;58.92;;
9801;SDS011;4940;50.900;4.672;2023-09-30T02:19:31;62.70;;;56.55;;
9801;SDS011;4940;50.900;4.672;2023-09-30T02:21:59;66.13;;;60.33;;
9801;SDS011;4940;50.900;4.672;2023-09-30T02:24:27;71.28;;;64.90;;
9801;SDS011;4940;50.900;4.672;2023-09-30T02:26:55;66.68;;;60.85;;
9801;SDS011;4940;50.900;4.672;2023-09-30T02:29:23;69.65;;;63.83;;
9801;SDS011;4940;50.900;4.672;2023-09-30T02:31:52;66.00;;;60.45;;
9801;SDS011;4940;50.900;4.672;2023-09-30T02:34:20;61.30;;;55.72;;
9801;SDS011;4940;50.900;4.672;2023-09-30T02:36:49;60.58;;;55.00;;
9801;SDS011;4940;50.900;4.672;2023-09-30T02:39:17;64.78;;;58.92;;
9801;SDS011;4940;50.900;4.672;2023-09-30T02:41:45;65.78;;;59.90;;
9801;SDS011;4940;50.900;4.672;2023-09-30T02:44:15;67.35;;;61.25;;
9801;SDS011;4940;50.900;4.672;2023-09-30T02:46:42;71.72;;;65.45;;
9801;SDS011;4940;50.900;4.672;2023-09-30T02:49:11;64.65;;;58.80;;
9801;SDS011;4940;50.900;4.672;2023-09-30T02:51:38;61.33;;;55.50;;
9801;SDS011;4940;50.900;4.672;2023-09-30T02:54:06;65.28;;;59.28;;
9801;SDS011;4940;50.900;4.672;2023-09-30T02:56:33;66.80;;;60.90;;
9801;SDS011;4940;50.900;4.672;2023-09-30T02:59:02;64.38;;;58.03;;
9801;SDS011;4940;50.900;4.672;2023-09-30T03:01:29;58.33;;;52.88;;
9801;SDS011;4940;50.900;4.672;2023-09-30T03:03:56;60.47;;;54.70;;
9801;SDS011;4940;50.900;4.672;2023-09-30T03:06:25;58.90;;;53.10;;
9801;SDS011;4940;50.900;4.672;2023-09-30T03:08:53;58.63;;;52.95;;
9801;SDS011;4940;50.900;4.672;2023-09-30T03:11:20;57.95;;;52.33;;
9801;SDS011;4940;50.900;4.672;2023-09-30T03:13:47;67.57;;;61.38;;
9801;SDS011;4940;50.900;4.672;2023-09-30T03:16:16;67.65;;;61.53;;
9801;SDS011;4940;50.900;4.672;2023-09-30T03:18:43;62.97;;;57.17;;
9801;SDS011;4940;50.900;4.672;2023-09-30T03:21:13;67.35;;;61.53;;
9801;SDS011;4940;50.900;4.672;2023-09-30T03:23:42;65.35;;;59.33;;
9801;SDS011;4940;50.900;4.672;2023-09-30T03:26:10;66.28;;;60.17;;
9801;SDS011;4940;50.900;4.672;2023-09-30T03:28:37;71.07;;;64.78;;
9801;SDS011;4940;50.900;4.672;2023-09-30T03:31:05;66.68;;;60.42;;
9801;SDS011;4940;50.900;4.672;2023-09-30T03:33:32;69.70;;;63.33;;
9801;SDS011;4940;50.900;4.672;2023-09-30T03:35:59;70.30;;;63.65;;
9801;SDS011;4940;50.900;4.672;2023-09-30T03:38:28;67.40;;;61.38;;
9801;SDS011;4940;50.900;4.672;2023-09-30T03:40:58;63.22;;;57.55;;
9801;SDS011;4940;50.900;4.672;2023-09-30T03:43:26;73.03;;;66.38;;
9801;SDS011;4940;50.900;4.672;2023-09-30T03:45:54;75.63;;;68.72;;
9801;SDS011;4940;50.900;4.672;2023-09-30T03:48:22;68.85;;;62.35;;
9801;SDS011;4940;50.900;4.672;2023-09-30T03:50:50;72.47;;;65.95;;
9801;SDS011;4940;50.900;4.672;2023-09-30T03:53:17;77.43;;;70.63;;
9801;SDS011;4940;50.900;4.672;2023-09-30T03:55:45;76.25;;;69.32;;
9801;SDS011;4940;50.900;4.672;2023-09-30T03:58:14;76.53;;;69.63;;
9801;SDS011;4940;50.900;4.672;2023-09-30T04:00:44;72.45;;;66.07;;
9801;SDS011;4940;50.900;4.672;2023-09-30T04:03:11;67.97;;;61.97;;
9801;SDS011;4940;50.900;4.672;2023-09-30T04:05:38;73.97;;;67.25;;
9801;SDS011;4940;50.900;4.672;2023-09-30T04:08:07;74.75;;;68.07;;
9801;SDS011;4940;50.900;4.672;2023-09-30T04:10:34;64.25;;;58.38;;
9801;SDS011;4940;50.900;4.672;2023-09-30T04:13:02;64.28;;;58.00;;
9801;SDS011;4940;50.900;4.672;2023-09-30T04:15:31;62.33;;;55.90;;
9801;SDS011;4940;50.900;4.672;2023-09-30T04:18:00;63.28;;;53.20;;
9801;SDS011;4940;50.900;4.672;2023-09-30T04:20:30;64.22;;;57.10;;
9801;SDS011;4940;50.900;4.672;2023-09-30T04:22:57;63.42;;;56.88;;
9801;SDS011;4940;50.900;4.672;2023-09-30T04:25:28;64.03;;;57.50;;
9801;SDS011;4940;50.900;4.672;2023-09-30T04:27:55;73.25;;;66.20;;
9801;SDS011;4940;50.900;4.672;2023-09-30T04:30:22;72.47;;;65.18;;
9801;SDS011;4940;50.900;4.672;2023-09-30T04:32:52;71.55;;;64.00;;
9801;SDS011;4940;50.900;4.672;2023-09-30T04:35:20;75.05;;;67.18;;
9801;SDS011;4940;50.900;4.672;2023-09-30T04:37:48;72.13;;;64.75;;
9801;SDS011;4940;50.900;4.672;2023-09-30T04:40:16;71.55;;;64.03;;
9801;SDS011;4940;50.900;4.672;2023-09-30T04:42:45;83.95;;;75.43;;
9801;SDS011;4940;50.900;4.672;2023-09-30T04:45:13;78.50;;;70.70;;
9801;SDS011;4940;50.900;4.672;2023-09-30T04:47:42;76.18;;;68.68;;
9801;SDS011;4940;50.900;4.672;2023-09-30T04:50:11;72.78;;;65.47;;
9801;SDS011;4940;50.900;4.672;2023-09-30T04:52:41;75.40;;;67.68;;
9801;SDS011;4940;50.900;4.672;2023-09-30T04:55:09;73.57;;;65.88;;
9801;SDS011;4940;50.900;4.672;2023-09-30T04:57:37;71.90;;;64.43;;
9801;SDS011;4940;50.900;4.672;2023-09-30T05:00:05;67.82;;;60.55;;
9801;SDS011;4940;50.900;4.672;2023-09-30T05:02:36;66.90;;;59.70;;
9801;SDS011;4940;50.900;4.672;2023-09-30T05:05:03;70.65;;;62.90;;
9801;SDS011;4940;50.900;4.672;2023-09-30T05:07:33;72.13;;;62.10;;
9801;SDS011;4940;50.900;4.672;2023-09-30T05:10:00;68.18;;;58.47;;
9801;SDS011;4940;50.900;4.672;2023-09-30T05:12:30;68.88;;;61.13;;
9801;SDS011;4940;50.900;4.672;2023-09-30T05:14:58;69.88;;;60.25;;
9801;SDS011;4940;50.900;4.672;2023-09-30T05:17:27;64.57;;;51.63;;
9801;SDS011;4940;50.900;4.672;2023-09-30T05:19:55;69.65;;;53.42;;
9801;SDS011;4940;50.900;4.672;2023-09-30T05:22:23;60.03;;;50.88;;
9801;SDS011;4940;50.900;4.672;2023-09-30T05:24:52;69.20;;;52.08;;
9801;SDS011;4940;50.900;4.672;2023-09-30T05:27:19;61.45;;;52.80;;
9801;SDS011;4940;50.900;4.672;2023-09-30T05:29:47;59.63;;;52.90;;
9801;SDS011;4940;50.900;4.672;2023-09-30T05:32:14;71.75;;;61.50;;
9801;SDS011;4940;50.900;4.672;2023-09-30T05:34:43;73.78;;;64.32;;
9801;SDS011;4940;50.900;4.672;2023-09-30T05:37:11;73.13;;;62.35;;
9801;SDS011;4940;50.900;4.672;2023-09-30T05:39:38;69.50;;;61.42;;
9801;SDS011;4940;50.900;4.672;2023-09-30T05:42:08;61.47;;;51.70;;
9801;SDS011;4940;50.900;4.672;2023-09-30T05:44:36;61.85;;;54.00;;
9801;SDS011;4940;50.900;4.672;2023-09-30T05:47:04;64.03;;;50.67;;
9801;SDS011;4940;50.900;4.672;2023-09-30T05:49:31;56.85;;;49.13;;
9801;SDS011;4940;50.900;4.672;2023-09-30T05:51:59;65.05;;;49.83;;
9801;SDS011;4940;50.900;4.672;2023-09-30T05:54:27;58.72;;;47.42;;
9801;SDS011;4940;50.900;4.672;2023-09-30T05:56:55;53.03;;;44.20;;
9801;SDS011;4940;50.900;4.672;2023-09-30T05:59:24;54.15;;;43.78;;
9801;SDS011;4940;50.900;4.672;2023-09-30T06:01:51;59.35;;;44.88;;
9801;SDS011;4940;50.900;4.672;2023-09-30T06:04:19;60.00;;;46.63;;
9801;SDS011;4940;50.900;4.672;2023-09-30T06:06:46;59.88;;;45.35;;
9801;SDS011;4940;50.900;4.672;2023-09-30T06:09:13;60.80;;;45.53;;
9801;SDS011;4940;50.900;4.672;2023-09-30T06:11:41;60.58;;;44.33;;
9801;SDS011;4940;50.900;4.672;2023-09-30T06:14:08;54.38;;;44.10;;
9801;SDS011;4940;50.900;4.672;2023-09-30T06:16:37;59.60;;;43.38;;
9801;SDS011;4940;50.900;4.672;2023-09-30T06:19:04;55.25;;;44.38;;
9801;SDS011;4940;50.900;4.672;2023-09-30T06:21:32;60.03;;;44.15;;
9801;SDS011;4940;50.900;4.672;2023-09-30T06:24:00;52.30;;;42.58;;
9801;SDS011;4940;50.900;4.672;2023-09-30T06:26:27;50.65;;;41.97;;
9801;SDS011;4940;50.900;4.672;2023-09-30T06:28:55;53.92;;;43.08;;
9801;SDS011;4940;50.900;4.672;2023-09-30T06:31:23;61.10;;;42.97;;
9801;SDS011;4940;50.900;4.672;2023-09-30T06:33:53;53.70;;;40.80;;
9801;SDS011;4940;50.900;4.672;2023-09-30T06:36:23;55.65;;;42.55;;
9801;SDS011;4940;50.900;4.672;2023-09-30T06:38:51;49.53;;;41.80;;
9801;SDS011;4940;50.900;4.672;2023-09-30T06:41:18;52.95;;;41.70;;
9801;SDS011;4940;50.900;4.672;2023-09-30T06:43:45;52.03;;;41.72;;
9801;SDS011;4940;50.900;4.672;2023-09-30T06:46:14;51.88;;;46.30;;
9801;SDS011;4940;50.900;4.672;2023-09-30T06:48:42;55.25;;;43.53;;
9801;SDS011;4940;50.900;4.672;2023-09-30T06:51:14;49.47;;;43.00;;
9801;SDS011;4940;50.900;4.672;2023-09-30T06:53:42;55.08;;;43.13;;
9801;SDS011;4940;50.900;4.672;2023-09-30T06:56:10;48.83;;;42.50;;
9801;SDS011;4940;50.900;4.672;2023-09-30T06:58:38;50.30;;;42.20;;
9801;SDS011;4940;50.900;4.672;2023-09-30T07:01:06;57.83;;;48.65;;
9801;SDS011;4940;50.900;4.672;2023-09-30T07:03:33;48.90;;;43.03;;
9801;SDS011;4940;50.900;4.672;2023-09-30T07:06:01;53.50;;;43.03;;
9801;SDS011;4940;50.900;4.672;2023-09-30T07:08:30;50.97;;;43.13;;
9801;SDS011;4940;50.900;4.672;2023-09-30T07:10:57;54.55;;;43.72;;
9801;SDS011;4940;50.900;4.672;2023-09-30T07:13:25;50.05;;;44.28;;
9801;SDS011;4940;50.900;4.672;2023-09-30T07:15:52;50.65;;;43.58;;
9801;SDS011;4940;50.900;4.672;2023-09-30T07:18:20;47.78;;;42.58;;
9801;SDS011;4940;50.900;4.672;2023-09-30T07:20:50;47.67;;;42.00;;
9801;SDS011;4940;50.900;4.672;2023-09-30T07:23:17;51.38;;;45.90;;
9801;SDS011;4940;50.900;4.672;2023-09-30T07:25:47;51.05;;;42.97;;
9801;SDS011;4940;50.900;4.672;2023-09-30T07:28:14;46.95;;;41.85;;
9801;SDS011;4940;50.900;4.672;2023-09-30T07:30:41;51.47;;;42.70;;
9801;SDS011;4940;50.900;4.672;2023-09-30T07:33:10;50.97;;;44.28;;
9801;SDS011;4940;50.900;4.672;2023-09-30T07:35:37;50.00;;;43.40;;
9801;SDS011;4940;50.900;4.672;2023-09-30T07:38:05;66.50;;;45.42;;
9801;SDS011;4940;50.900;4.672;2023-09-30T07:40:32;47.78;;;42.97;;
9801;SDS011;4940;50.900;4.672;2023-09-30T07:43:01;47.63;;;42.53;;
9801;SDS011;4940;50.900;4.672;2023-09-30T07:45:29;44.60;;;39.95;;
9801;SDS011;4940;50.900;4.672;2023-09-30T07:47:56;43.72;;;38.83;;
9801;SDS011;4940;50.900;4.672;2023-09-30T07:50:24;42.58;;;37.97;;
9801;SDS011;4940;50.900;4.672;2023-09-30T07:52:52;38.88;;;35.38;;
9801;SDS011;4940;50.900;4.672;2023-09-30T07:55:19;34.00;;;30.88;;
9801;SDS011;4940;50.900;4.672;2023-09-30T07:57:46;32.00;;;29.35;;
9801;SDS011;4940;50.900;4.672;2023-09-30T08:00:15;33.58;;;30.40;;
9801;SDS011;4940;50.900;4.672;2023-09-30T08:02:43;31.55;;;28.80;;
9801;SDS011;4940;50.900;4.672;2023-09-30T08:05:10;28.65;;;26.33;;
9801;SDS011;4940;50.900;4.672;2023-09-30T08:07:38;23.90;;;22.15;;
9801;SDS011;4940;50.900;4.672;2023-09-30T08:10:06;17.52;;;16.05;;
9801;SDS011;4940;50.900;4.672;2023-09-30T08:12:38;12.10;;;9.52;;
9801;SDS011;4940;50.900;4.672;2023-09-30T08:15:06;8.27;;;5.07;;
9801;SDS011;4940;50.900;4.672;2023-09-30T08:17:38;7.85;;;4.57;;
9801;SDS011;4940;50.900;4.672;2023-09-30T08:20:06;8.27;;;4.00;;
9801;SDS011;4940;50.900;4.672;2023-09-30T08:22:34;6.40;;;4.20;;
9801;SDS011;4940;50.900;4.672;2023-09-30T08:25:02;7.13;;;3.58;;
9801;SDS011;4940;50.900;4.672;2023-09-30T08:27:31;6.28;;;3.92;;
9801;SDS011;4940;50.900;4.672;2023-09-30T08:29:59;7.45;;;4.00;;
9801;SDS011;4940;50.900;4.672;2023-09-30T08:32:31;6.07;;;3.42;;
9801;SDS011;4940;50.900;4.672;2023-09-30T08:35:01;9.57;;;3.65;;
9801;SDS011;4940;50.900;4.672;2023-09-30T08:37:29;5.78;;;3.53;;
9801;SDS011;4940;50.900;4.672;2023-09-30T08:39:56;5.32;;;3.83;;
9801;SDS011;4940;50.900;4.672;2023-09-30T08:42:24;7.15;;;3.72;;
9801;SDS011;4940;50.900;4.672;2023-09-30T08:44:58;7.68;;;4.03;;
9801;SDS011;4940;50.900;4.672;2023-09-30T08:47:25;7.47;;;4.35;;
9801;SDS011;4940;50.900;4.672;2023-09-30T08:49:53;9.25;;;3.90;;
9801;SDS011;4940;50.900;4.672;2023-09-30T08:52:28;10.23;;;3.92;;
9801;SDS011;4940;50.900;4.672;2023-09-30T08:54:56;8.45;;;3.95;;
9801;SDS011;4940;50.900;4.672;2023-09-30T08:57:23;9.47;;;4.23;;
9801;SDS011;4940;50.900;4.672;2023-09-30T08:59:51;6.38;;;3.40;;
9801;SDS011;4940;50.900;4.672;2023-09-30T09:02:20;7.75;;;3.35;;
9801;SDS011;4940;50.900;4.672;2023-09-30T09:04:47;8.95;;;3.60;;
9801;SDS011;4940;50.900;4.672;2023-09-30T09:07:16;6.22;;;3.90;;
9801;SDS011;4940;50.900;4.672;2023-09-30T09:09:52;6.45;;;3.67;;
9801;SDS011;4940;50.900;4.672;2023-09-30T09:12:30;9.50;;;3.72;;
9801;SDS011;4940;50.900;4.672;2023-09-30T09:14:58;6.60;;;3.08;;
9801;SDS011;4940;50.900;4.672;2023-09-30T09:17:39;7.63;;;3.45;;
9801;SDS011;4940;50.900;4.672;2023-09-30T09:20:07;7.45;;;3.28;;
9801;SDS011;4940;50.900;4.672;2023-09-30T09:22:39;6.60;;;3.28;;
9801;SDS011;4940;50.900;4.672;2023-09-30T09:25:09;7.20;;;3.50;;
9801;SDS011;4940;50.900;4.672;2023-09-30T09:27:37;7.13;;;3.38;;
9801;SDS011;4940;50.900;4.672;2023-09-30T09:30:14;9.60;;;4.07;;
9801;SDS011;4940;50.900;4.672;2023-09-30T09:33:01;4.75;;;3.15;;
9801;SDS011;4940;50.900;4.672;2023-09-30T09:35:30;7.47;;;3.05;;
9801;SDS011;4940;50.900;4.672;2023-09-30T09:37:58;5.43;;;3.03;;
9801;SDS011;4940;50.900;4.672;2023-09-30T09:40:27;7.40;;;4.07;;
9801;SDS011;4940;50.900;4.672;2023-09-30T09:42:55;8.68;;;3.40;;
9801;SDS011;4940;50.900;4.672;2023-09-30T09:45:24;6.63;;;3.13;;
9801;SDS011;4940;50.900;4.672;2023-09-30T09:47:53;7.95;;;2.85;;
9801;SDS011;4940;50.900;4.672;2023-09-30T09:50:22;6.78;;;2.70;;
9801;SDS011;4940;50.900;4.672;2023-09-30T09:52:50;4.03;;;2.85;;
9801;SDS011;4940;50.900;4.672;2023-09-30T09:55:22;6.88;;;2.90;;
9801;SDS011;4940;50.900;4.672;2023-09-30T09:57:51;11.05;;;3.30;;
9801;SDS011;4940;50.900;4.672;2023-09-30T10:00:19;5.60;;;3.08;;
9801;SDS011;4940;50.900;4.672;2023-09-30T10:02:48;7.53;;;2.50;;
9801;SDS011;4940;50.900;4.672;2023-09-30T10:05:17;5.03;;;2.33;;
9801;SDS011;4940;50.900;4.672;2023-09-30T10:07:46;6.22;;;2.80;;
9801;SDS011;4940;50.900;4.672;2023-09-30T10:10:18;5.00;;;2.53;;
9801;SDS011;4940;50.900;4.672;2023-09-30T10:12:47;5.18;;;2.60;;
9801;SDS011;4940;50.900;4.672;2023-09-30T10:18:08;6.00;;;2.65;;
9801;SDS011;4940;50.900;4.672;2023-09-30T10:20:37;7.55;;;2.33;;
9801;SDS011;4940;50.900;4.672;2023-09-30T10:23:25;7.18;;;2.67;;
9801;SDS011;4940;50.900;4.672;2023-09-30T10:26:13;7.40;;;2.35;;
9801;SDS011;4940;50.900;4.672;2023-09-30T10:28:43;6.38;;;2.22;;
9801;SDS011;4940;50.900;4.672;2023-09-30T10:31:15;3.75;;;1.92;;
9801;SDS011;4940;50.900;4.672;2023-09-30T10:36:46;3.20;;;1.90;;
9801;SDS011;4940;50.900;4.672;2023-09-30T10:39:19;3.83;;;1.77;;
9801;SDS011;4940;50.900;4.672;2023-09-30T10:42:43;7.15;;;2.45;;
9801;SDS011;4940;50.900;4.672;2023-09-30T10:51:01;4.15;;;2.10;;
9801;SDS011;4940;50.900;4.672;2023-09-30T10:53:41;5.00;;;2.03;;
9801;SDS011;4940;50.900;4.672;2023-09-30T10:56:10;3.97;;;2.00;;
9801;SDS011;4940;50.900;4.672;2023-09-30T10:58:41;7.70;;;2.10;;
9801;SDS011;4940;50.900;4.672;2023-09-30T11:01:10;5.63;;;2.28;;
9801;SDS011;4940;50.900;4.672;2023-09-30T11:03:40;4.03;;;2.10;;
9801;SDS011;4940;50.900;4.672;2023-09-30T11:06:08;4.13;;;1.95;;
9801;SDS011;4940;50.900;4.672;2023-09-30T11:08:40;7.40;;;2.50;;
9801;SDS011;4940;50.900;4.672;2023-09-30T11:11:11;2.50;;;1.85;;
9801;SDS011;4940;50.900;4.672;2023-09-30T11:13:39;6.45;;;2.55;;
9801;SDS011;4940;50.900;4.672;2023-09-30T11:16:07;5.85;;;2.10;;
9801;SDS011;4940;50.900;4.672;2023-09-30T11:18:34;6.20;;;2.10;;
9801;SDS011;4940;50.900;4.672;2023-09-30T11:21:05;5.20;;;2.00;;
9801;SDS011;4940;50.900;4.672;2023-09-30T11:23:34;8.00;;;2.50;;
9801;SDS011;4940;50.900;4.672;2023-09-30T11:26:02;5.10;;;2.03;;
9801;SDS011;4940;50.900;4.672;2023-09-30T11:28:37;5.05;;;1.73;;
9801;SDS011;4940;50.900;4.672;2023-09-30T11:31:07;5.60;;;2.50;;
9801;SDS011;4940;50.900;4.672;2023-09-30T11:33:49;5.78;;;2.10;;
9801;SDS011;4940;50.900;4.672;2023-09-30T11:36:19;4.57;;;2.05;;
9801;SDS011;4940;50.900;4.672;2023-09-30T11:38:48;5.35;;;2.20;;
9801;SDS011;4940;50.900;4.672;2023-09-30T11:41:18;3.65;;;1.92;;
9801;SDS011;4940;50.900;4.672;2023-09-30T11:44:00;4.80;;;2.13;;
9801;SDS011;4940;50.900;4.672;2023-09-30T11:46:33;3.60;;;1.98;;
9801;SDS011;4940;50.900;4.672;2023-09-30T11:49:24;2.88;;;1.85;;
9801;SDS011;4940;50.900;4.672;2023-09-30T11:51:58;8.32;;;2.65;;
9801;SDS011;4940;50.900;4.672;2023-09-30T11:54:30;4.18;;;1.90;;
9801;SDS011;4940;50.900;4.672;2023-09-30T11:56:59;8.27;;;2.00;;
9801;SDS011;4940;50.900;4.672;2023-09-30T11:59:27;5.10;;;1.90;;
9801;SDS011;4940;50.900;4.672;2023-09-30T12:01:54;5.03;;;1.90;;
9801;SDS011;4940;50.900;4.672;2023-09-30T12:04:22;6.05;;;2.30;;
9801;SDS011;4940;50.900;4.672;2023-09-30T12:06:50;7.28;;;2.03;;
9801;SDS011;4940;50.900;4.672;2023-09-30T12:09:21;5.78;;;2.28;;
9801;SDS011;4940;50.900;4.672;2023-09-30T12:11:52;3.63;;;1.65;;
9801;SDS011;4940;50.900;4.672;2023-09-30T12:14:21;3.13;;;1.63;;
9801;SDS011;4940;50.900;4.672;2023-09-30T12:16:48;4.30;;;2.10;;
9801;SDS011;4940;50.900;4.672;2023-09-30T12:19:16;5.05;;;1.92;;
9801;SDS011;4940;50.900;4.672;2023-09-30T12:21:43;5.25;;;1.90;;
9801;SDS011;4940;50.900;4.672;2023-09-30T12:24:13;2.97;;;1.60;;
9801;SDS011;4940;50.900;4.672;2023-09-30T12:29:13;5.03;;;1.90;;
9801;SDS011;4940;50.900;4.672;2023-09-30T12:31:42;5.18;;;2.30;;
9801;SDS011;4940;50.900;4.672;2023-09-30T12:34:10;4.25;;;1.73;;
9801;SDS011;4940;50.900;4.672;2023-09-30T12:36:37;5.25;;;1.75;;
9801;SDS011;4940;50.900;4.672;2023-09-30T12:39:05;5.25;;;1.70;;
9801;SDS011;4940;50.900;4.672;2023-09-30T12:41:36;5.78;;;1.83;;
9801;SDS011;4940;50.900;4.672;2023-09-30T12:44:08;6.63;;;2.00;;
9801;SDS011;4940;50.900;4.672;2023-09-30T12:46:43;4.18;;;1.88;;
9801;SDS011;4940;50.900;4.672;2023-09-30T12:49:22;8.18;;;2.90;;
9801;SDS011;4940;50.900;4.672;2023-09-30T12:52:04;6.13;;;2.20;;
9801;SDS011;4940;50.900;4.672;2023-09-30T12:54:32;5.32;;;1.90;;
9801;SDS011;4940;50.900;4.672;2023-09-30T12:57:00;7.70;;;2.15;;
9801;SDS011;4940;50.900;4.672;2023-09-30T12:59:41;6.82;;;2.03;;
9801;SDS011;4940;50.900;4.672;2023-09-30T13:02:15;5.43;;;1.60;;
9801;SDS011;4940;50.900;4.672;2023-09-30T13:04:43;4.18;;;1.90;;
9801;SDS011;4940;50.900;4.672;2023-09-30T13:07:17;8.88;;;2.40;;
9801;SDS011;4940;50.900;4.672;2023-09-30T13:09:47;2.97;;;1.60;;
9801;SDS011;4940;50.900;4.672;2023-09-30T13:12:24;4.88;;;1.70;;
9801;SDS011;4940;50.900;4.672;2023-09-30T13:15:06;4.18;;;1.50;;
9801;SDS011;4940;50.900;4.672;2023-09-30T13:17:34;3.90;;;1.70;;
9801;SDS011;4940;50.900;4.672;2023-09-30T13:20:14;4.25;;;1.70;;
9801;SDS011;4940;50.900;4.672;2023-09-30T13:22:48;3.90;;;1.40;;
9801;SDS011;4940;50.900;4.672;2023-09-30T13:25:15;4.28;;;1.60;;
9801;SDS011;4940;50.900;4.672;2023-09-30T13:27:52;3.00;;;1.67;;
9801;SDS011;4940;50.900;4.672;2023-09-30T13:30:21;3.28;;;1.73;;
9801;SDS011;4940;50.900;4.672;2023-09-30T13:32:48;5.15;;;1.77;;
9801;SDS011;4940;50.900;4.672;2023-09-30T13:35:16;4.72;;;1.88;;
9801;SDS011;4940;50.900;4.672;2023-09-30T13:37:44;3.60;;;1.63;;
9801;SDS011;4940;50.900;4.672;2023-09-30T13:40:12;3.33;;;1.38;;
9801;SDS011;4940;50.900;4.672;2023-09-30T13:42:41;4.05;;;1.58;;
9801;SDS011;4940;50.900;4.672;2023-09-30T13:45:15;4.13;;;1.95;;
9801;SDS011;4940;50.900;4.672;2023-09-30T13:47:45;4.75;;;1.40;;
9801;SDS011;4940;50.900;4.672;2023-09-30T13:50:16;4.05;;;1.67;;
9801;SDS011;4940;50.900;4.672;2023-09-30T13:52:53;2.33;;;1.40;;
9801;SDS011;4940;50.900;4.672;2023-09-30T13:55:28;3.63;;;1.40;;
9801;SDS011;4940;50.900;4.672;2023-09-30T13:57:59;3.65;;;2.08;;
9801;SDS011;4940;50.900;4.672;2023-09-30T14:00:27;4.30;;;1.77;;
9801;SDS011;4940;50.900;4.672;2023-09-30T14:02:57;4.75;;;2.25;;
9801;SDS011;4940;50.900;4.672;2023-09-30T14:05:29;6.32;;;1.48;;
9801;SDS011;4940;50.900;4.672;2023-09-30T14:08:07;4.03;;;2.10;;
9801;SDS011;4940;50.900;4.672;2023-09-30T14:10:34;5.70;;;2.08;;
9801;SDS011;4940;50.900;4.672;2023-09-30T14:13:02;3.90;;;1.58;;
9801;SDS011;4940;50.900;4.672;2023-09-30T14:15:30;2.90;;;1.40;;
9801;SDS011;4940;50.900;4.672;2023-09-30T14:18:00;5.13;;;1.80;;
9801;SDS011;4940;50.900;4.672;2023-09-30T14:20:31;2.97;;;1.33;;
9801;SDS011;4940;50.900;4.672;2023-09-30T14:23:00;7.00;;;1.73;;
9801;SDS011;4940;50.900;4.672;2023-09-30T14:25:28;4.10;;;1.60;;
9801;SDS011;4940;50.900;4.672;2023-09-30T14:27:56;4.45;;;2.00;;
9801;SDS011;4940;50.900;4.672;2023-09-30T14:30:25;6.72;;;1.70;;
9801;SDS011;4940;50.900;4.672;2023-09-30T14:33:05;4.45;;;1.67;;
9801;SDS011;4940;50.900;4.672;2023-09-30T14:35:45;3.45;;;1.40;;
9801;SDS011;4940;50.900;4.672;2023-09-30T14:38:22;3.83;;;1.60;;
9801;SDS011;4940;50.900;4.672;2023-09-30T14:40:51;5.65;;;1.92;;
9801;SDS011;4940;50.900;4.672;2023-09-30T14:43:18;4.10;;;1.95;;
9801;SDS011;4940;50.900;4.672;2023-09-30T14:45:45;3.72;;;1.40;;
9801;SDS011;4940;50.900;4.672;2023-09-30T14:48:14;2.78;;;1.38;;
9801;SDS011;4940;50.900;4.672;2023-09-30T14:50:48;3.22;;;1.60;;
9801;SDS011;4940;50.900;4.672;2023-09-30T14:53:16;3.03;;;1.50;;
9801;SDS011;4940;50.900;4.672;2023-09-30T14:55:44;3.80;;;1.55;;
9801;SDS011;4940;50.900;4.672;2023-09-30T14:58:12;4.88;;;1.98;;
9801;SDS011;4940;50.900;4.672;2023-09-30T15:00:42;3.20;;;1.80;;
9801;SDS011;4940;50.900;4.672;2023-09-30T15:03:27;3.80;;;1.38;;
9801;SDS011;4940;50.900;4.672;2023-09-30T15:05:58;2.88;;;1.60;;
9801;SDS011;4940;50.900;4.672;2023-09-30T15:08:27;8.25;;;2.15;;
9801;SDS011;4940;50.900;4.672;2023-09-30T15:10:54;3.88;;;1.92;;
9801;SDS011;4940;50.900;4.672;2023-09-30T15:13:21;5.15;;;1.60;;
9801;SDS011;4940;50.900;4.672;2023-09-30T15:15:49;5.10;;;1.80;;
9801;SDS011;4940;50.900;4.672;2023-09-30T15:18:16;4.32;;;1.55;;
9801;SDS011;4940;50.900;4.672;2023-09-30T15:20:45;4.75;;;1.77;;
9801;SDS011;4940;50.900;4.672;2023-09-30T15:23:12;2.70;;;1.75;;
9801;SDS011;4940;50.900;4.672;2023-09-30T15:25:40;3.15;;;1.60;;
9801;SDS011;4940;50.900;4.672;2023-09-30T15:28:09;5.78;;;1.67;;